createdAt,value
2024-01-09T00:02:36.430Z,17.30
2024-01-09T00:07:38.908Z,33.43
2024-01-09T00:12:41.359Z,25.00
2024-01-09T00:17:44.053Z,24.27
2024-01-09T00:22:46.584Z,22.57
2024-01-09T00:27:49.473Z,19.37
2024-01-09T00:32:52.156Z,22.20
2024-01-09T00:37:54.826Z,23.33
2024-01-09T00:42:57.409Z,25.00
2024-01-09T00:48:00.067Z,31.30
2024-01-09T00:53:02.639Z,34.90
2024-01-09T00:58:05.185Z,26.17
2024-01-09T01:03:07.729Z,25.03
2024-01-09T01:08:10.256Z,23.67
2024-01-09T01:13:12.790Z,20.33
2024-01-09T01:18:15.423Z,22.20
2024-01-09T01:23:18.137Z,18.47
2024-01-09T01:28:20.902Z,22.63
2024-01-09T01:33:23.632Z,19.67
2024-01-09T01:38:27.127Z,22.07
2024-01-09T01:43:29.707Z,23.03
2024-01-09T01:48:33.457Z,18.30
2024-01-09T01:53:37.402Z,18.63
2024-01-09T01:58:41.007Z,16.63
2024-01-09T02:03:43.833Z,17.73
2024-01-09T02:08:47.133Z,19.90
2024-01-09T02:13:49.778Z,16.47
2024-01-09T02:18:52.421Z,16.07
2024-01-09T02:23:55.012Z,18.30
2024-01-09T02:29:02.940Z,19.43
2024-01-09T02:34:08.443Z,17.80
2024-01-09T02:39:12.364Z,16.07
2024-01-09T02:44:15.934Z,17.40
2024-01-09T02:49:18.752Z,19.70
2024-01-09T02:54:21.315Z,16.83
2024-01-09T02:59:25.860Z,17.03
2024-01-09T03:04:28.369Z,18.83
2024-01-09T03:09:30.954Z,18.87
2024-01-09T03:14:37.659Z,18.80
2024-01-09T03:19:41.858Z,19.77
2024-01-09T03:24:44.501Z,21.67
2024-01-09T03:29:47.053Z,19.00
2024-01-09T03:34:49.633Z,18.57
2024-01-09T03:39:52.125Z,17.80
2024-01-09T03:44:54.909Z,18.07
2024-01-09T03:49:57.657Z,20.87
2024-01-09T03:55:00.248Z,18.27
2024-01-09T04:00:02.818Z,19.10
2024-01-09T04:05:07.971Z,18.30
2024-01-09T04:10:10.516Z,21.27
2024-01-09T04:15:13.919Z,17.73
2024-01-09T04:20:16.536Z,14.80
2024-01-09T04:25:19.131Z,19.77
2024-01-09T04:30:22.017Z,17.87
2024-01-09T04:35:24.580Z,18.50
2024-01-09T04:40:29.235Z,18.53
2024-01-09T04:45:31.866Z,21.67
2024-01-09T04:50:34.494Z,25.97
2024-01-09T04:55:36.977Z,23.37
2024-01-09T05:00:39.512Z,22.17
2024-01-09T05:05:42.044Z,25.70
2024-01-09T05:10:45.020Z,24.67
2024-01-09T05:15:47.608Z,25.37
2024-01-09T05:20:50.263Z,36.30
2024-01-09T05:25:52.776Z,33.10
2024-01-09T05:30:55.646Z,29.67
2024-01-09T05:35:58.189Z,32.83
2024-01-09T05:41:00.721Z,33.73
2024-01-09T05:46:03.338Z,30.93
2024-01-09T05:51:05.921Z,29.70
2024-01-09T05:56:08.556Z,28.93
2024-01-09T06:01:12.409Z,28.03
2024-01-09T06:06:15.106Z,28.93
2024-01-09T06:11:18.147Z,32.83
2024-01-09T06:16:20.678Z,39.97
2024-01-09T06:21:23.257Z,39.00
2024-01-09T06:26:25.806Z,38.37
2024-01-09T06:31:28.665Z,38.83
2024-01-09T06:36:32.658Z,38.43
2024-01-09T06:41:35.415Z,46.80
2024-01-09T06:46:37.887Z,51.30
2024-01-09T06:51:40.763Z,41.10
2024-01-09T06:56:45.685Z,41.97
2024-01-09T07:01:48.290Z,37.57
2024-01-09T07:06:51.070Z,37.67
2024-01-09T07:11:53.900Z,37.23
2024-01-09T07:16:56.477Z,31.30
2024-01-09T07:21:59.096Z,33.90
2024-01-09T07:27:01.700Z,41.20
2024-01-09T07:32:05.005Z,42.53
2024-01-09T07:37:07.515Z,39.17
2024-01-09T07:42:10.081Z,33.33
2024-01-09T07:47:12.877Z,34.73
2024-01-09T07:52:15.412Z,32.40
2024-01-09T07:57:22.378Z,27.00
2024-01-09T08:02:25.585Z,28.00
2024-01-09T08:07:28.506Z,38.10
2024-01-09T08:12:31.007Z,40.40
2024-01-09T08:17:33.575Z,38.27
2024-01-09T08:22:36.266Z,33.93
2024-01-09T08:27:38.817Z,34.50
2024-01-09T08:32:41.875Z,33.47
2024-01-09T08:37:44.485Z,28.70
2024-01-09T08:42:47.000Z,30.97
2024-01-09T08:47:49.642Z,27.00
2024-01-09T08:52:53.315Z,29.87
2024-01-09T08:57:55.819Z,26.30
2024-01-09T09:02:58.447Z,32.10
2024-01-09T09:08:01.000Z,27.60
2024-01-09T09:13:04.845Z,26.90
2024-01-09T09:18:07.788Z,32.77
2024-01-09T09:23:10.452Z,31.53
2024-01-09T09:28:13.075Z,31.27
2024-01-09T09:33:16.072Z,30.23
2024-01-09T09:38:18.695Z,30.60
2024-01-09T09:43:27.526Z,27.37
2024-01-09T09:48:30.789Z,24.63
2024-01-09T09:53:33.976Z,22.50
2024-01-09T09:58:36.467Z,33.03
2024-01-09T10:03:56.981Z,28.47
2024-01-09T10:09:01.383Z,30.00
2024-01-09T10:14:05.366Z,28.23
2024-01-09T10:19:08.353Z,27.30
2024-01-09T10:24:11.220Z,31.57
2024-01-09T10:29:13.957Z,27.03
2024-01-09T10:34:16.550Z,29.03
2024-01-09T10:39:19.255Z,43.30
2024-01-09T10:44:21.872Z,24.00
2024-01-09T10:49:25.845Z,20.50
2024-01-09T10:54:30.721Z,21.20
2024-01-09T10:59:34.957Z,28.97
2024-01-09T11:04:37.426Z,25.43
2024-01-09T11:09:43.116Z,21.07
2024-01-09T11:14:52.774Z,25.43
2024-01-09T11:19:55.672Z,19.63
2024-01-09T11:24:59.024Z,18.47
2024-01-09T11:30:03.394Z,18.10
2024-01-09T11:35:14.450Z,16.67
2024-01-09T11:40:19.180Z,17.40
2024-01-09T11:45:26.499Z,20.77
2024-01-09T11:50:29.077Z,23.00
2024-01-09T11:55:31.675Z,23.03
2024-01-09T12:00:36.244Z,23.10
2024-01-09T12:05:39.564Z,26.93
2024-01-09T12:10:46.094Z,23.97
2024-01-09T12:15:48.596Z,25.03
2024-01-09T12:20:51.171Z,22.10
2024-01-09T12:25:53.809Z,25.67
2024-01-09T12:30:56.326Z,20.10
2024-01-09T12:36:10.906Z,21.93
2024-01-09T12:41:13.392Z,22.27
2024-01-09T12:46:15.940Z,19.10
2024-01-09T12:51:20.113Z,22.67
2024-01-09T12:56:22.996Z,20.80
2024-01-09T13:01:29.766Z,22.10
2024-01-09T13:06:34.367Z,22.73
2024-01-09T13:11:39.649Z,23.90
2024-01-09T13:16:42.853Z,24.93
2024-01-09T13:26:51.310Z,25.43
2024-01-09T13:31:54.025Z,93.20
2024-01-09T13:36:58.794Z,23.57
2024-01-09T13:42:01.736Z,27.43
2024-01-09T13:47:05.115Z,19.93
2024-01-09T13:52:07.726Z,17.43
2024-01-09T13:57:12.385Z,20.60
2024-01-09T14:02:14.865Z,20.17
2024-01-09T14:07:17.468Z,21.63
2024-01-09T14:12:21.274Z,19.57
2024-01-09T14:17:24.271Z,18.10
2024-01-09T14:22:26.960Z,19.37
2024-01-09T14:27:30.248Z,20.33
2024-01-09T14:32:33.200Z,20.03
2024-01-09T14:37:35.793Z,21.73
2024-01-09T14:42:40.731Z,25.83
2024-01-09T14:47:43.444Z,27.77
2024-01-09T14:52:46.032Z,28.63
2024-01-09T14:57:48.633Z,22.47
2024-01-09T15:02:52.823Z,26.33
2024-01-09T15:07:55.565Z,24.40
2024-01-09T15:12:58.429Z,37.23
2024-01-09T15:18:01.025Z,36.20
2024-01-09T15:23:04.863Z,33.30
2024-01-09T15:28:07.468Z,32.67
2024-01-09T15:33:11.363Z,34.57
2024-01-09T15:38:14.169Z,38.40
2024-01-09T15:43:16.705Z,34.97
2024-01-09T15:48:19.253Z,37.43
2024-01-09T15:53:21.997Z,46.30
2024-01-09T15:58:24.538Z,39.70
2024-01-09T16:03:27.107Z,39.53
2024-01-09T16:08:29.683Z,41.53
2024-01-09T16:13:32.721Z,64.33
2024-01-09T16:18:36.619Z,83.03
2024-01-09T16:23:40.037Z,89.27
2024-01-09T16:28:48.205Z,92.90
2024-01-09T16:33:51.089Z,77.10
2024-01-09T16:38:54.386Z,88.33
2024-01-09T16:43:57.014Z,88.70
2024-01-09T16:48:59.598Z,83.83
2024-01-09T16:54:02.290Z,91.20
2024-01-09T16:59:05.225Z,102.67
2024-01-09T17:04:08.432Z,99.80
2024-01-09T17:09:12.915Z,105.47
2024-01-09T17:14:15.839Z,115.63
2024-01-09T17:19:24.155Z,120.07
2024-01-09T17:24:29.134Z,116.93
2024-01-09T17:29:34.571Z,127.27
2024-01-09T17:34:37.250Z,93.63
2024-01-09T17:39:41.058Z,81.40
2024-01-09T17:44:47.266Z,94.60
2024-01-09T17:49:49.764Z,123.03
2024-01-09T17:54:52.341Z,110.40
2024-01-09T17:59:55.605Z,109.60
2024-01-09T18:04:58.165Z,110.30
2024-01-09T18:10:01.459Z,106.33
2024-01-09T18:15:06.413Z,123.77
2024-01-09T18:20:09.492Z,162.97
2024-01-09T18:25:14.127Z,226.83
2024-01-09T18:30:17.121Z,346.77
2024-01-09T18:35:19.921Z,275.60
2024-01-09T18:40:22.506Z,246.83
2024-01-09T18:45:25.093Z,234.93
2024-01-09T18:50:27.745Z,224.03
2024-01-09T18:55:31.057Z,251.33
2024-01-09T19:00:33.913Z,259.20
2024-01-09T19:05:36.636Z,241.80
2024-01-09T19:10:39.290Z,231.83
2024-01-09T19:15:42.306Z,219.90
2024-01-09T19:20:44.951Z,227.47
2024-01-09T19:25:48.459Z,192.77
2024-01-09T19:30:51.351Z,171.87
2024-01-09T19:35:54.378Z,174.70
2024-01-09T19:40:57.157Z,161.30
2024-01-09T19:45:59.739Z,156.37
2024-01-09T19:51:09.237Z,141.70
2024-01-09T19:56:11.901Z,135.87
2024-01-09T20:01:14.621Z,137.60
2024-01-09T20:06:28.170Z,140.67
2024-01-09T20:11:31.312Z,138.67
2024-01-09T20:16:34.448Z,131.93
2024-01-09T20:21:37.197Z,149.23
2024-01-09T20:26:40.127Z,139.63
2024-01-09T20:31:45.994Z,132.57
2024-01-09T20:36:48.982Z,117.77
2024-01-09T20:41:51.584Z,127.93
2024-01-09T20:46:54.354Z,143.23
2024-01-09T20:51:56.949Z,168.97
2024-01-09T20:57:00.590Z,202.27
2024-01-09T21:02:03.796Z,184.03
2024-01-09T21:07:08.424Z,199.73
2024-01-09T21:12:11.162Z,205.97
2024-01-09T21:17:14.281Z,207.87
2024-01-09T21:22:16.997Z,148.33
2024-01-09T21:27:19.598Z,196.03
2024-01-09T21:32:22.317Z,190.13
2024-01-09T21:37:24.885Z,192.57
2024-01-09T21:42:27.645Z,178.73
2024-01-09T21:47:30.451Z,172.17
2024-01-09T21:52:33.464Z,171.50
2024-01-09T21:57:36.050Z,159.87
2024-01-09T22:02:38.789Z,170.33
2024-01-09T22:07:41.326Z,144.00
2024-01-09T22:12:43.905Z,150.80
2024-01-09T22:17:49.530Z,141.07
2024-01-09T22:22:52.565Z,142.33
2024-01-09T22:27:55.110Z,162.23
2024-01-09T22:32:57.772Z,185.07
2024-01-09T22:38:00.604Z,167.17
2024-01-09T22:43:03.324Z,155.53
2024-01-09T22:48:06.440Z,154.07
2024-01-09T22:53:09.050Z,151.73
2024-01-09T22:58:11.629Z,150.87
2024-01-09T23:03:14.150Z,154.43
2024-01-09T23:08:16.840Z,170.33
2024-01-09T23:13:20.926Z,153.97
2024-01-09T23:18:23.893Z,137.63
2024-01-09T23:23:26.507Z,141.07
2024-01-09T23:28:29.141Z,149.97
2024-01-09T23:33:32.413Z,146.70
2024-01-09T23:38:35.014Z,139.50
2024-01-09T23:43:37.682Z,136.40
2024-01-09T23:48:40.248Z,125.57
2024-01-09T23:53:42.796Z,125.53
2024-01-09T23:58:45.308Z,131.57
